Time;durP1;ratioP1;P1;durP2;ratioP2;P2;SDS_P1;SDS_P2;PMS_P1;PMS_P2;Temp;Humidity;BMP_temperature;BMP_pressure;BME280_temperature;BME280_humidity;BME280_pressure;Samples;Min_cycle;Max_cycle;Signal;HPM_P1;HPM_P2
2023/07/13 00:00:18;;;;;;;5.90;5.00;;;;;;;17.80;75.72;99379.86;218768;1260;140452;-71
2023/07/13 00:05:43;;;;;;;5.70;5.20;;;;;;;17.81;76.06;99386.05;218294;1258;140477;-70
2023/07/13 00:10:49;;;;;;;5.50;3.90;;;;;;;17.86;76.34;99390.20;218492;1257;139932;-70
2023/07/13 00:15:54;;;;;;;5.10;4.60;;;;;;;17.82;76.24;99391.64;219839;1256;140281;-70
2023/07/13 00:21:04;;;;;;;6.20;4.70;;;;;;;17.78;76.21;99386.36;217832;1258;140801;-70
2023/07/13 00:26:11;;;;;;;5.50;4.80;;;;;;;17.76;76.31;99383.41;220208;1257;140488;-71
2023/07/13 00:31:16;;;;;;;6.40;4.30;;;;;;;17.74;76.41;99386.37;217898;1257;140083;-69
2023/07/13 00:36:20;;;;;;;15.10;5.60;;;;;;;17.71;76.63;99388.90;220365;1257;140443;-70
2023/07/13 00:41:26;;;;;;;6.20;5.00;;;;;;;17.71;76.87;99385.23;220307;1257;140152;-70
2023/07/13 00:46:32;;;;;;;6.50;4.60;;;;;;;17.75;76.93;99385.64;219345;1260;140678;-67
2023/07/13 00:51:50;;;;;;;11.40;5.10;;;;;;;17.73;76.82;99386.60;217788;1260;140873;-67
2023/07/13 00:57:03;;;;;;;6.60;4.90;;;;;;;17.66;76.77;99389.70;218610;1257;140769;-68
2023/07/13 01:02:09;;;;;;;6.70;4.90;;;;;;;17.57;77.00;99398.96;218472;1257;140556;-70
2023/07/13 01:07:14;;;;;;;6.70;5.60;;;;;;;17.53;77.40;99396.91;218178;1257;140318;-68
2023/07/13 01:12:18;;;;;;;9.10;5.20;;;;;;;17.53;77.37;99385.38;219357;1257;140357;-67
2023/07/13 01:17:24;;;;;;;12.00;6.00;;;;;;;17.44;77.39;99373.46;217927;1261;139657;-71
2023/07/13 01:22:31;;;;;;;6.50;4.50;;;;;;;17.38;77.61;99373.98;218176;1257;140260;-71
2023/07/13 01:27:41;;;;;;;9.20;5.00;;;;;;;17.33;77.51;99373.98;218228;1260;141097;-73
2023/07/13 01:32:46;;;;;;;8.80;4.80;;;;;;;17.30;77.85;99367.19;218022;1260;139556;-73
2023/07/13 01:37:52;;;;;;;7.60;4.40;;;;;;;17.28;77.91;99371.29;218081;1260;140397;-73
2023/07/13 01:42:58;;;;;;;5.30;4.80;;;;;;;17.20;77.87;99382.27;218147;1257;140336;-67
2023/07/13 01:48:06;;;;;;;8.50;5.10;;;;;;;17.15;78.09;99394.91;218993;1257;141448;-69
2023/07/13 01:53:11;;;;;;;7.10;5.50;;;;;;;17.06;78.28;99390.83;218372;1258;139844;-69
2023/07/13 01:58:16;;;;;;;6.40;5.10;;;;;;;16.99;78.41;99389.02;218953;1257;140491;-68
2023/07/13 02:03:20;;;;;;;7.10;4.80;;;;;;;17.01;78.64;99378.60;218021;1257;141051;-68
2023/07/13 02:08:24;;;;;;;8.30;5.40;;;;;;;16.98;78.57;99371.20;218271;1257;142397;-67
2023/07/13 02:13:29;;;;;;;8.00;5.80;;;;;;;16.96;78.63;99373.70;219890;1257;140389;-67
2023/07/13 02:18:34;;;;;;;10.10;4.50;;;;;;;16.94;78.77;99371.50;219058;1257;140249;-68
2023/07/13 02:23:39;;;;;;;5.80;4.90;;;;;;;16.89;78.57;99362.88;219361;1257;141150;-67
2023/07/13 02:28:43;;;;;;;7.80;5.00;;;;;;;16.85;78.76;99364.70;220297;1257;140763;-67
2023/07/13 02:33:48;;;;;;;14.70;6.10;;;;;;;16.81;78.85;99362.55;219723;1257;140939;-67
2023/07/13 02:38:53;;;;;;;7.00;4.50;;;;;;;16.77;78.94;99361.57;220490;1256;140722;-68
2023/07/13 02:44:03;;;;;;;6.30;4.90;;;;;;;16.72;78.99;99358.33;218753;1256;162270;-68
2023/07/13 02:49:08;;;;;;;6.40;4.80;;;;;;;16.69;79.37;99359.16;218737;1257;141405;-67
2023/07/13 02:54:13;;;;;;;5.30;4.80;;;;;;;16.74;79.85;99366.54;219020;1256;141062;-67
2023/07/13 02:59:18;;;;;;;8.20;4.80;;;;;;;16.79;79.77;99363.98;218909;1257;139999;-67
2023/07/13 03:04:22;;;;;;;12.20;5.30;;;;;;;16.75;79.71;99366.48;218424;1257;140236;-67
2023/07/13 03:09:27;;;;;;;7.70;4.40;;;;;;;16.74;80.00;99368.75;218903;1257;140428;-67
2023/07/13 03:14:31;;;;;;;5.30;4.80;;;;;;;16.80;80.22;99367.52;218928;1258;140149;-68
2023/07/13 03:19:36;;;;;;;12.00;6.10;;;;;;;16.87;80.35;99363.77;218119;1258;141081;-67
2023/07/13 03:24:40;;;;;;;7.20;5.10;;;;;;;16.95;80.39;99358.79;217823;1257;140989;-69
2023/07/13 03:29:45;;;;;;;6.20;5.60;;;;;;;17.02;80.44;99360.06;218021;1257;141098;-68
2023/07/13 03:34:49;;;;;;;6.90;5.80;;;;;;;17.14;80.55;99362.28;217850;1260;140335;-69
2023/07/13 03:39:52;;;;;;;6.90;6.00;;;;;;;17.24;80.91;99376.56;217543;1257;139942;-69
2023/07/13 03:44:56;;;;;;;9.50;5.10;;;;;;;17.35;80.88;99382.53;217759;1257;140248;-68
2023/07/13 03:50:03;;;;;;;7.40;5.80;;;;;;;17.40;80.88;99390.83;218341;1257;140350;-68
2023/07/13 03:55:09;;;;;;;11.00;7.10;;;;;;;17.41;80.55;99397.72;218258;1257;140905;-68
2023/07/13 04:00:14;;;;;;;10.30;6.30;;;;;;;17.43;80.65;99408.23;218336;1257;140433;-68
2023/07/13 04:05:19;;;;;;;13.00;6.20;;;;;;;17.48;80.62;99409.25;218964;1257;140071;-68
2023/07/13 04:10:23;;;;;;;7.80;6.50;;;;;;;17.77;80.71;99402.94;218728;1257;141115;-69
2023/07/13 04:15:30;;;;;;;8.30;6.00;;;;;;;18.04;80.69;99420.73;218184;1256;140857;-68
2023/07/13 04:20:35;;;;;;;10.20;7.10;;;;;;;18.32;80.73;99414.39;220130;1256;139692;-69
2023/07/13 04:25:43;;;;;;;8.10;7.40;;;;;;;18.60;80.76;99413.31;219960;1256;142862;-69
2023/07/13 04:30:47;;;;;;;7.90;7.00;;;;;;;19.26;80.06;99416.96;219676;1256;250961;-69
2023/07/13 04:35:54;;;;;;;12.00;8.60;;;;;;;20.22;78.36;99424.77;220382;1256;140201;-70
2023/07/13 04:41:02;;;;;;;9.70;7.80;;;;;;;20.20;78.35;99410.30;220304;1256;140740;-69
2023/07/13 04:46:10;;;;;;;15.80;8.90;;;;;;;20.37;77.64;99406.95;220512;1256;141197;-67
2023/07/13 04:51:16;;;;;;;11.40;8.40;;;;;;;20.69;77.40;99422.86;218317;1260;223574;-66
2023/07/13 04:56:20;;;;;;;24.30;7.80;;;;;;;20.93;76.56;99426.98;218924;1257;140778;-67
2023/07/13 05:01:25;;;;;;;9.70;8.50;;;;;;;21.18;76.03;99426.80;219863;1256;140232;-67
2023/07/13 05:06:31;;;;;;;9.50;8.60;;;;;;;21.24;75.78;99439.63;217754;1257;140490;-66
2023/07/13 05:11:35;;;;;;;10.90;9.20;;;;;;;21.33;74.79;99439.39;218303;1257;140840;-67
2023/07/13 05:16:40;;;;;;;10.60;9.50;;;;;;;21.81;73.94;99444.33;218847;1256;141704;-67
2023/07/13 05:21:45;;;;;;;15.50;8.50;;;;;;;22.77;72.91;99451.98;217899;1257;141097;-66
2023/07/13 05:26:51;;;;;;;16.00;8.50;;;;;;;24.65;70.00;99464.26;218738;1256;140943;-67
2023/07/13 05:31:56;;;;;;;11.10;7.70;;;;;;;27.59;66.51;99460.86;217827;1256;140478;-68
2023/07/13 05:37:00;;;;;;;9.10;6.90;;;;;;;30.08;63.01;99463.32;219154;1256;140572;-68
2023/07/13 05:42:06;;;;;;;17.20;7.80;;;;;;;32.19;58.95;99464.77;219081;1256;159762;-68
2023/07/13 05:47:10;;;;;;;10.20;7.10;;;;;;;33.52;55.16;99465.39;218976;1257;140001;-69
2023/07/13 05:52:16;;;;;;;9.20;6.10;;;;;;;34.62;51.96;99463.05;217554;1259;139774;-68
2023/07/13 05:57:20;;;;;;;8.60;6.30;;;;;;;35.75;49.07;99465.19;218065;1256;139290;-68
2023/07/13 06:02:26;;;;;;;5.50;4.70;;;;;;;37.45;46.36;99466.18;219155;1257;139613;-71
2023/07/13 06:07:31;;;;;;;3.80;3.60;;;;;;;39.14;43.39;99467.45;217798;1256;139765;-71
2023/07/13 06:12:36;;;;;;;4.60;4.10;;;;;;;40.30;40.68;99465.67;217360;1257;139230;-71
2023/07/13 06:17:41;;;;;;;4.60;4.10;;;;;;;41.19;38.31;99464.05;218192;1258;140654;-71
2023/07/13 06:22:47;;;;;;;6.20;3.90;;;;;;;42.09;36.73;99458.98;217558;1257;139271;-71
2023/07/13 06:27:51;;;;;;;8.50;4.10;;;;;;;42.39;35.30;99461.84;217371;1257;139401;-71
2023/07/13 06:32:57;;;;;;;7.00;4.20;;;;;;;40.99;34.70;99458.95;217747;1260;141939;-71
2023/07/13 06:38:02;;;;;;;4.50;4.10;;;;;;;39.98;34.17;99451.56;218527;1256;139066;-71
2023/07/13 06:43:06;;;;;;;4.70;4.30;;;;;;;39.49;35.16;99452.55;218260;1256;140749;-70
2023/07/13 06:48:11;;;;;;;3.90;3.60;;;;;;;40.16;34.98;99453.95;218856;1256;139482;-71
2023/07/13 06:53:16;;;;;;;3.70;3.50;;;;;;;40.26;34.10;99446.42;218923;1256;139398;-71
2023/07/13 06:58:21;;;;;;;4.50;4.20;;;;;;;40.45;33.60;99443.64;218058;1256;139180;-71
2023/07/13 07:03:25;;;;;;;4.90;4.30;;;;;;;40.83;33.19;99442.96;217634;1257;139320;-70
2023/07/13 07:08:29;;;;;;;4.30;3.90;;;;;;;39.36;32.51;99443.16;217508;1256;140039;-70
2023/07/13 07:13:33;;;;;;;5.20;4.40;;;;;;;37.47;33.78;99451.04;217653;1257;139684;-70
2023/07/13 07:18:38;;;;;;;3.70;3.20;;;;;;;35.75;35.00;99451.77;217556;1259;139625;-70
2023/07/13 07:23:43;;;;;;;5.00;4.20;;;;;;;34.30;36.06;99465.50;217739;1257;139514;-69
2023/07/13 07:28:48;;;;;;;6.30;4.20;;;;;;;33.18;37.36;99473.12;217576;1257;139393;-71
2023/07/13 07:34:12;;;;;;;;;;;;;;;32.23;37.84;99478.27;217268;1257;139987;-70
2023/07/13 07:39:17;;;;;;;4.40;3.10;;;;;;;31.19;38.09;99491.22;218444;1257;126135;-70
2023/07/13 07:44:21;;;;;;;2.90;2.70;;;;;;;30.24;37.82;99507.83;217993;1257;139884;-70
2023/07/13 07:49:26;;;;;;;5.80;3.60;;;;;;;29.48;38.45;99523.58;218346;1257;139935;-71
2023/07/13 07:54:30;;;;;;;11.40;8.60;;;;;;;28.77;39.51;99537.98;217723;1256;138795;-70
2023/07/13 07:59:55;;;;;;;10.90;9.80;;;;;;;27.99;42.75;99556.19;218552;1259;139876;-68
2023/07/13 08:05:01;;;;;;;11.30;9.90;;;;;;;27.26;44.95;99576.59;217561;1259;140334;-69
2023/07/13 08:10:09;;;;;;;8.60;7.90;;;;;;;26.55;46.67;99591.39;218242;1256;139866;-68
2023/07/13 08:15:17;;;;;;;7.60;6.10;;;;;;;25.76;48.10;99601.45;220390;1256;140301;-69
2023/07/13 08:20:24;;;;;;;6.50;5.70;;;;;;;25.04;49.35;99607.66;220367;1256;139656;-69
2023/07/13 08:25:29;;;;;;;5.90;4.10;;;;;;;24.47;50.48;99608.48;219507;1256;139679;-68
2023/07/13 08:30:36;;;;;;;6.80;3.90;;;;;;;23.88;50.95;99607.36;219677;1256;139405;-68
2023/07/13 08:35:40;;;;;;;5.50;3.10;;;;;;;23.52;51.82;99609.24;220196;1256;139582;-69
2023/07/13 08:40:49;;;;;;;6.80;2.60;;;;;;;23.08;52.63;99610.56;219276;1256;141176;-67
2023/07/13 08:46:00;;;;;;;2.60;2.40;;;;;;;22.77;53.95;99610.16;219164;1257;139527;-67
2023/07/13 08:51:30;;;;;;;7.40;2.60;;;;;;;22.50;54.80;99611.45;218267;1257;140194;-67
2023/07/13 08:56:36;;;;;;;2.40;2.20;;;;;;;22.32;55.68;99618.05;218699;1257;141177;-68
2023/07/13 09:02:15;;;;;;;3.70;2.90;;;;;;;22.25;56.39;99624.14;218466;1256;140527;-67
2023/07/13 09:07:33;;;;;;;3.40;3.10;;;;;;;21.97;57.14;99621.58;218028;1260;139578;-67
2023/07/13 09:13:10;;;;;;;3.40;3.10;;;;;;;21.86;58.15;99621.48;218189;1256;139409;-67
2023/07/13 09:18:42;;;;;;;4.40;2.70;;;;;;;21.80;59.19;99614.02;217951;1259;139523;-66
2023/07/13 09:23:53;;;;;;;3.60;3.20;;;;;;;21.72;59.83;99614.30;218730;1257;141604;-67
2023/07/13 09:29:03;;;;;;;15.80;3.80;;;;;;;21.71;60.51;99615.56;217723;1260;140063;-68
2023/07/13 09:34:11;;;;;;;6.10;3.10;;;;;;;21.81;61.06;99606.23;218718;1259;161003;-67
2023/07/13 09:39:36;;;;;;;4.80;2.60;;;;;;;21.97;61.40;99593.23;217541;1256;140875;-67
2023/07/13 09:44:59;;;;;;;6.30;2.80;;;;;;;22.14;61.68;99598.80;219501;1256;139987;-69
2023/07/13 09:50:08;;;;;;;3.20;2.80;;;;;;;22.39;61.95;99595.19;217510;1257;139902;-68
2023/07/13 09:55:40;;;;;;;3.40;3.10;;;;;;;22.61;62.02;99596.09;218440;1256;139959;-67
2023/07/13 10:01:04;;;;;;;3.40;3.00;;;;;;;22.76;61.75;99602.48;219134;1256;140627;-68
2023/07/13 10:06:21;;;;;;;3.50;2.80;;;;;;;22.79;61.83;99591.86;220014;1256;141467;-69
2023/07/13 10:11:29;;;;;;;3.40;3.20;;;;;;;22.87;61.78;99586.09;220064;1256;140214;-68
2023/07/13 10:16:34;;;;;;;5.70;3.30;;;;;;;22.84;61.81;99581.53;219576;1257;139917;-68
2023/07/13 10:21:51;;;;;;;5.60;3.10;;;;;;;22.73;62.20;99588.59;219949;1256;140634;-68
2023/07/13 10:27:05;;;;;;;5.80;3.00;;;;;;;22.52;62.15;99592.38;220172;1256;140903;-69
2023/07/13 10:32:14;;;;;;;3.50;3.10;;;;;;;22.16;62.58;99590.52;219475;1256;140002;-68
2023/07/13 10:37:24;;;;;;;3.30;3.00;;;;;;;22.14;63.40;99581.73;217847;1260;139944;-68
2023/07/13 10:42:35;;;;;;;4.00;3.60;;;;;;;22.21;63.96;99580.11;219016;1256;522171;-68
2023/07/13 10:47:40;;;;;;;6.80;3.30;;;;;;;22.19;64.20;99581.13;218583;1256;139812;-68
2023/07/13 10:52:50;;;;;;;6.80;3.20;;;;;;;22.26;64.88;99578.05;219043;1256;140794;-69
2023/07/13 10:57:55;;;;;;;3.90;3.60;;;;;;;22.26;64.84;99583.09;218708;1257;139941;-68
2023/07/13 11:03:04;;;;;;;3.30;3.00;;;;;;;22.42;65.14;99595.77;219014;1259;140269;-68
2023/07/13 11:08:32;;;;;;;6.10;3.00;;;;;;;22.61;65.06;99600.98;218997;1256;140740;-67
2023/07/13 11:13:50;;;;;;;10.70;3.00;;;;;;;22.71;64.90;99597.19;217984;1259;140091;-67
2023/07/13 11:19:07;;;;;;;4.40;2.90;;;;;;;22.88;64.74;99589.63;218384;1256;140887;-67
2023/07/13 11:24:16;;;;;;;3.40;2.60;;;;;;;23.01;64.55;99586.10;219603;1257;141466;-68
2023/07/13 11:29:39;;;;;;;4.00;3.20;;;;;;;23.06;64.11;99595.28;218139;1257;139961;-68
2023/07/13 11:34:44;;;;;;;2.90;2.70;;;;;;;23.08;63.95;99593.94;218324;1257;140576;-69
2023/07/13 11:39:52;;;;;;;2.40;2.30;;;;;;;23.23;64.31;99598.47;218170;1257;139949;-68
2023/07/13 11:45:01;;;;;;;2.20;2.00;;;;;;;23.40;64.20;99601.01;219128;1255;140577;-69
2023/07/13 11:50:24;;;;;;;8.10;3.00;;;;;;;23.48;63.33;99598.83;218985;1256;140570;-69
2023/07/13 11:55:29;;;;;;;9.60;2.60;;;;;;;23.46;62.56;99598.48;219363;1256;141480;-70
2023/07/13 12:00:35;;;;;;;2.80;2.60;;;;;;;23.42;62.43;99604.85;220248;1257;140826;-70
2023/07/13 12:05:57;;;;;;;3.70;3.40;;;;;;;23.49;62.65;99609.80;220445;1257;140652;-70
2023/07/13 12:11:13;;;;;;;3.00;2.20;;;;;;;23.59;62.50;99612.89;220222;1257;140506;-69
2023/07/13 12:16:32;;;;;;;5.20;3.20;;;;;;;23.62;62.48;99618.30;220163;1257;140601;-69
2023/07/13 12:21:43;;;;;;;3.90;3.40;;;;;;;23.69;62.48;99620.73;219909;1257;140439;-69
2023/07/13 12:26:59;;;;;;;3.20;2.60;;;;;;;23.82;62.71;99617.52;220341;1256;141993;-68
2023/07/13 12:32:08;;;;;;;2.60;2.40;;;;;;;23.94;62.44;99616.75;218745;1257;140594;-69
2023/07/13 12:37:15;;;;;;;6.30;2.90;;;;;;;24.09;62.25;99624.11;219290;1257;141171;-71
2023/07/13 12:42:31;;;;;;;3.70;2.90;;;;;;;24.24;61.71;99621.06;218871;1256;140319;-68
2023/07/13 12:47:43;;;;;;;;;;;;;;;24.39;61.50;99623.48;218906;1257;140535;-68
2023/07/13 12:53:09;;;;;;;5.60;3.00;;;;;;;24.41;61.39;99615.67;218643;1256;126298;-68
2023/07/13 12:58:41;;;;;;;3.10;2.80;;;;;;;24.40;61.08;99609.11;217756;1257;142667;-67
2023/07/13 13:03:55;;;;;;;4.70;3.10;;;;;;;24.45;61.28;99610.55;218173;1257;139831;-69
2023/07/13 13:09:00;;;;;;;2.70;2.40;;;;;;;24.63;61.25;99608.42;217392;1259;140776;-68
2023/07/13 13:14:07;;;;;;;3.30;2.50;;;;;;;24.71;61.05;99612.55;217715;1257;140831;-68
2023/07/13 13:19:16;;;;;;;3.00;2.80;;;;;;;24.82;60.54;99608.81;218571;1257;139827;-70
2023/07/13 13:24:24;;;;;;;3.30;3.00;;;;;;;24.97;60.21;99612.14;218634;1257;139091;-69
2023/07/13 13:29:32;;;;;;;3.40;3.10;;;;;;;25.09;59.99;99611.64;219970;1258;140155;-65
2023/07/13 13:34:38;;;;;;;3.80;2.70;;;;;;;25.12;59.51;99603.88;217790;1259;139058;-72
2023/07/13 13:39:44;;;;;;;5.60;3.20;;;;;;;25.07;59.49;99604.96;218756;1257;141107;-68
2023/07/13 13:45:09;;;;;;;4.10;2.90;;;;;;;25.04;59.58;99607.38;218880;1257;139101;-67
2023/07/13 13:50:22;;;;;;;4.30;2.80;;;;;;;25.04;59.47;99609.72;217938;1259;139763;-70
2023/07/13 13:55:28;;;;;;;10.20;3.00;;;;;;;25.04;59.00;99610.23;218947;1259;139666;-70
2023/07/13 14:00:35;;;;;;;4.60;2.60;;;;;;;25.06;58.52;99612.56;218652;1256;139274;-65
2023/07/13 14:05:42;;;;;;;2.40;2.20;;;;;;;25.10;57.87;99616.13;218546;1259;207057;-65
2023/07/13 14:10:57;;;;;;;4.10;3.00;;;;;;;25.12;56.87;99620.96;220518;1257;140315;-68
2023/07/13 14:16:18;;;;;;;2.90;2.70;;;;;;;25.14;56.32;99619.72;219203;1256;140533;-67
2023/07/13 14:21:38;;;;;;;3.50;2.80;;;;;;;25.25;55.77;99623.14;220396;1257;139541;-68
2023/07/13 14:26:48;;;;;;;2.80;2.60;;;;;;;25.36;55.48;99627.61;220405;1257;139553;-66
2023/07/13 14:31:56;;;;;;;1.80;1.70;;;;;;;25.41;55.31;99624.58;219768;1256;139480;-71
2023/07/13 14:37:04;;;;;;;3.10;2.20;;;;;;;25.37;54.93;99622.70;219003;1256;141449;-71
2023/07/13 14:42:12;;;;;;;2.60;2.40;;;;;;;25.33;54.63;99622.61;219168;1256;139898;-66
2023/07/13 14:47:23;;;;;;;3.00;2.80;;;;;;;25.36;54.55;99623.86;218335;1256;139417;-67
2023/07/13 14:52:29;;;;;;;4.70;3.00;;;;;;;25.48;54.47;99618.73;217894;1257;139906;-72
2023/07/13 14:57:34;;;;;;;2.20;2.00;;;;;;;25.55;54.12;99621.65;217993;1256;139736;-70
2023/07/13 15:02:41;;;;;;;51.60;5.10;;;;;;;25.34;53.53;99623.53;217774;1256;139406;-71
2023/07/13 15:07:48;;;;;;;3.20;2.30;;;;;;;25.30;54.14;99627.17;218791;1257;139591;-68
2023/07/13 15:12:53;;;;;;;;;;;;;;;25.37;54.08;99619.52;218284;1257;140668;-68
2023/07/13 15:17:59;;;;;;;4.10;3.50;;;;;;;25.41;54.04;99617.55;217976;1257;125969;-67
2023/07/13 15:23:03;;;;;;;4.30;3.50;;;;;;;25.46;53.86;99617.50;218329;1260;140695;-68
2023/07/13 15:28:08;;;;;;;3.10;2.90;;;;;;;25.49;53.31;99609.42;217788;1257;140076;-68
2023/07/13 15:33:19;;;;;;;9.20;3.10;;;;;;;25.46;53.07;99615.48;219312;1257;139173;-68
2023/07/13 15:38:28;;;;;;;8.40;3.00;;;;;;;25.43;53.35;99611.85;218707;1256;140222;-69
2023/07/13 15:43:33;;;;;;;7.50;3.80;;;;;;;25.36;53.75;99605.23;219022;1259;140143;-69
2023/07/13 15:48:37;;;;;;;;;;;;;;;25.38;53.63;99601.15;217997;1256;140184;-68
2023/07/13 15:53:42;;;;;;;3.70;3.40;;;;;;;25.65;53.24;99598.92;219257;1256;127109;-68
2023/07/13 15:58:50;;;;;;;4.80;4.50;;;;;;;26.00;52.42;99595.88;220461;1257;139400;-68
2023/07/13 16:03:54;;;;;;;4.30;3.90;;;;;;;26.23;51.70;99596.17;219783;1257;139481;-70
2023/07/13 16:09:05;;;;;;;5.30;3.90;;;;;;;26.28;51.13;99592.95;219770;1257;139718;-68
2023/07/13 16:14:14;;;;;;;8.90;4.40;;;;;;;26.21;50.86;99592.90;220397;1257;139667;-68
2023/07/13 16:19:18;;;;;;;4.20;3.80;;;;;;;26.01;50.49;99595.75;220616;1256;139890;-71
2023/07/13 16:24:25;;;;;;;3.50;3.20;;;;;;;25.95;50.55;99600.88;220092;1257;139057;-71
2023/07/13 16:29:31;;;;;;;3.80;3.50;;;;;;;25.82;50.78;99609.75;217783;1258;140086;-70
2023/07/13 16:34:40;;;;;;;3.30;3.10;;;;;;;25.65;50.56;99616.70;217600;1260;139200;-69
2023/07/13 16:39:52;;;;;;;3.70;3.40;;;;;;;25.39;51.13;99619.66;217982;1257;139352;-67
2023/07/13 16:44:59;;;;;;;6.30;4.70;;;;;;;25.11;51.74;99625.85;218276;1261;140319;-68
2023/07/13 16:50:14;;;;;;;4.80;4.30;;;;;;;24.90;52.97;99639.85;217824;1259;140501;-68
2023/07/13 16:55:27;;;;;;;3.40;3.20;;;;;;;24.67;52.70;99657.00;217844;1257;139470;-68
2023/07/13 17:00:33;;;;;;;3.40;3.10;;;;;;;24.34;51.73;99670.80;218116;1256;139545;-68
2023/07/13 17:05:46;;;;;;;3.90;3.00;;;;;;;24.02;51.56;99679.04;218423;1260;140233;-69
2023/07/13 17:10:57;;;;;;;6.00;2.90;;;;;;;23.78;51.32;99672.36;218479;1260;139177;-72
2023/07/13 17:16:04;;;;;;;3.80;3.20;;;;;;;23.62;51.81;99658.34;218563;1262;140241;-70
2023/07/13 17:21:15;;;;;;;3.40;2.40;;;;;;;23.51;52.02;99655.77;218387;1257;139615;-70
2023/07/13 17:26:22;;;;;;;3.50;3.20;;;;;;;23.41;52.43;99655.24;217702;1257;139294;-71
2023/07/13 17:31:30;;;;;;;3.90;2.90;;;;;;;23.28;52.27;99647.34;219005;1259;139779;-72
2023/07/13 17:36:35;;;;;;;2.80;2.50;;;;;;;23.13;52.51;99648.16;219009;1260;139584;-72
2023/07/13 17:41:49;;;;;;;3.70;2.60;;;;;;;23.02;53.08;99652.85;218967;1257;139295;-72
2023/07/13 17:46:54;;;;;;;3.00;2.70;;;;;;;22.85;52.88;99654.25;219489;1256;144225;-69
2023/07/13 17:52:05;;;;;;;2.60;2.40;;;;;;;22.71;53.35;99656.52;218798;1260;140301;-70
2023/07/13 17:57:13;;;;;;;2.50;2.40;;;;;;;22.61;54.04;99663.95;220288;1256;140013;-71
2023/07/13 18:02:21;;;;;;;2.20;2.00;;;;;;;22.47;54.45;99681.84;220145;1257;140544;-71
2023/07/13 18:07:28;;;;;;;2.70;2.50;;;;;;;22.23;54.88;99672.94;220445;1259;139050;-72
2023/07/13 18:12:34;;;;;;;4.20;3.20;;;;;;;22.08;55.71;99675.23;219921;1258;139384;-69
2023/07/13 18:17:45;;;;;;;3.10;2.90;;;;;;;21.94;56.13;99672.02;218656;1257;140643;-71
2023/07/13 18:22:51;;;;;;;3.30;3.10;;;;;;;21.72;56.42;99679.50;220092;1257;139806;-71
2023/07/13 18:27:57;;;;;;;3.40;3.20;;;;;;;21.52;56.96;99686.04;219519;1258;140061;-70
2023/07/13 18:33:04;;;;;;;2.90;2.70;;;;;;;21.34;57.58;99685.81;218704;1257;139374;-73
2023/07/13 18:38:21;;;;;;;3.40;3.10;;;;;;;21.16;58.13;99680.95;218422;1259;141610;-70
2023/07/13 18:43:27;;;;;;;7.00;3.00;;;;;;;20.94;58.60;99691.19;218930;1257;139529;-67
2023/07/13 18:48:35;;;;;;;4.50;3.30;;;;;;;20.70;58.94;99694.55;218919;1256;141198;-70
2023/07/13 18:53:40;;;;;;;3.60;3.30;;;;;;;20.40;59.20;99698.09;217727;1258;141392;-69
2023/07/13 18:58:45;;;;;;;5.50;3.40;;;;;;;20.11;59.73;99697.46;219047;1257;140754;-68
2023/07/13 19:03:51;;;;;;;4.70;3.10;;;;;;;19.93;60.20;99700.27;218413;1257;140539;-69
2023/07/13 19:08:56;;;;;;;3.80;3.50;;;;;;;19.68;60.61;99706.70;218612;1258;140993;-67
2023/07/13 19:14:00;;;;;;;4.80;3.40;;;;;;;19.42;61.28;99716.70;217745;1260;140069;-68
2023/07/13 19:19:16;;;;;;;3.60;3.40;;;;;;;19.19;61.88;99723.09;218392;1258;142837;-68
2023/07/13 19:24:24;;;;;;;4.20;3.90;;;;;;;18.99;62.54;99731.41;218599;1257;141614;-65
2023/07/13 19:29:30;;;;;;;3.40;3.10;;;;;;;18.83;63.10;99736.48;218779;1259;141182;-68
2023/07/13 19:34:35;;;;;;;3.70;3.30;;;;;;;18.69;63.44;99735.89;218804;1258;140095;-69
2023/07/13 19:39:42;;;;;;;3.90;3.00;;;;;;;18.55;63.51;99730.69;217660;1258;141073;-68
2023/07/13 19:44:47;;;;;;;4.30;3.40;;;;;;;18.42;63.95;99736.59;218397;1257;140149;-69
2023/07/13 19:49:53;;;;;;;13.60;3.60;;;;;;;18.35;64.08;99737.96;219009;1257;140814;-68
2023/07/13 19:55:08;;;;;;;3.30;3.10;;;;;;;18.24;64.38;99740.78;220498;1258;139980;-70
2023/07/13 20:00:21;;;;;;;4.30;2.80;;;;;;;18.16;64.52;99747.21;220431;1257;140863;-68
2023/07/13 20:05:27;;;;;;;3.90;3.10;;;;;;;18.03;64.75;99757.80;220331;1256;140482;-68
2023/07/13 20:10:33;;;;;;;11.70;4.00;;;;;;;17.94;65.18;99769.11;220437;1257;141327;-70
2023/07/13 20:15:38;;;;;;;;;;;;;;;17.95;65.66;99774.33;220394;1256;139934;-70
2023/07/13 20:20:48;;;;;;;5.00;3.90;;;;;;;17.96;65.82;99783.27;219558;1256;127399;-67
2023/07/13 20:25:55;;;;;;;5.80;3.20;;;;;;;18.01;66.02;99776.88;219558;1256;140151;-69
2023/07/13 20:31:00;;;;;;;4.80;3.60;;;;;;;18.04;66.22;99761.18;218767;1256;141551;-66
2023/07/13 20:36:08;;;;;;;6.00;3.40;;;;;;;18.08;66.58;99773.77;218963;1256;140467;-67
2023/07/13 20:41:14;;;;;;;3.60;3.30;;;;;;;18.06;66.80;99782.91;218947;1257;140091;-66
2023/07/13 20:46:23;;;;;;;5.30;2.90;;;;;;;18.09;67.05;99784.66;217841;1259;139990;-65
2023/07/13 20:51:29;;;;;;;4.00;3.20;;;;;;;18.10;67.24;99790.96;217671;1258;140326;-65
2023/07/13 20:56:37;;;;;;;3.90;3.30;;;;;;;18.06;67.14;99789.21;218415;1256;140112;-69
2023/07/13 21:01:43;;;;;;;4.30;3.20;;;;;;;18.03;67.26;99792.94;218042;1260;139935;-69
2023/07/13 21:06:49;;;;;;;4.20;3.80;;;;;;;18.04;67.43;99799.91;217875;1260;139987;-69
2023/07/13 21:11:55;;;;;;;6.10;4.10;;;;;;;18.04;67.43;99803.65;218209;1258;140356;-73
2023/07/13 21:17:01;;;;;;;3.80;3.60;;;;;;;17.97;67.60;99807.27;218231;1257;140712;-69
2023/07/13 21:22:15;;;;;;;4.30;3.90;;;;;;;17.93;67.70;99799.90;217821;1257;140200;-70
2023/07/13 21:27:19;;;;;;;6.90;4.00;;;;;;;17.90;67.79;99793.67;219109;1260;140390;-67
2023/07/13 21:32:23;;;;;;;4.00;3.10;;;;;;;17.92;68.09;99795.06;218380;1256;140656;-68
2023/07/13 21:37:29;;;;;;;4.70;4.30;;;;;;;17.92;68.34;99797.65;218027;1260;140196;-67
2023/07/13 21:42:35;;;;;;;4.10;3.60;;;;;;;17.90;68.70;99794.42;218471;1257;140063;-68
2023/07/13 21:47:40;;;;;;;4.00;3.70;;;;;;;17.90;68.91;99786.94;217792;1257;140806;-68
2023/07/13 21:52:47;;;;;;;4.70;4.30;;;;;;;17.86;68.94;99791.98;217673;1256;140184;-67
2023/07/13 21:57:54;;;;;;;6.50;3.40;;;;;;;17.81;69.10;99788.88;220350;1256;141113;-66
2023/07/13 22:02:59;;;;;;;4.80;4.30;;;;;;;17.78;69.34;99783.17;218090;1257;140142;-71
2023/07/13 22:08:08;;;;;;;4.50;4.10;;;;;;;17.74;69.46;99782.99;219812;1256;141072;-70
2023/07/13 22:13:14;;;;;;;6.80;4.30;;;;;;;17.68;69.65;99782.24;220628;1256;141396;-71
2023/07/13 22:18:21;;;;;;;5.40;3.90;;;;;;;17.57;69.50;99781.95;219313;1256;140989;-71
2023/07/13 22:23:45;;;;;;;66.10;8.70;;;;;;;17.39;69.46;99780.01;218937;1256;139353;-69
2023/07/13 22:29:11;;;;;;;6.40;4.00;;;;;;;17.24;69.54;99780.04;219469;1256;141771;-67
2023/07/13 22:34:20;;;;;;;5.30;4.70;;;;;;;17.05;69.51;99785.58;217745;1257;140964;-66
2023/07/13 22:39:28;;;;;;;4.40;4.10;;;;;;;16.88;69.77;99782.77;217480;1257;295178;-68
2023/07/13 22:44:34;;;;;;;4.70;4.20;;;;;;;16.65;69.80;99784.83;217912;1257;139543;-70
2023/07/13 22:49:38;;;;;;;4.60;4.20;;;;;;;16.48;70.09;99782.33;217704;1256;140142;-72
2023/07/13 22:54:43;;;;;;;10.00;4.10;;;;;;;16.33;70.33;99777.29;218658;1257;140427;-67
2023/07/13 22:59:47;;;;;;;4.70;4.30;;;;;;;16.19;70.47;99775.00;217559;1256;140160;-67
2023/07/13 23:04:51;;;;;;;5.30;4.90;;;;;;;16.02;70.54;99783.45;218344;1256;140245;-69
2023/07/13 23:09:55;;;;;;;4.90;4.20;;;;;;;15.87;70.90;99784.30;218397;1256;139960;-69
2023/07/13 23:15:20;;;;;;;4.80;4.30;;;;;;;15.74;71.11;99788.44;217842;1256;223557;-72
2023/07/13 23:20:36;;;;;;;7.10;4.20;;;;;;;15.62;71.51;99792.94;217463;1257;140210;-71
2023/07/13 23:25:43;;;;;;;6.00;5.50;;;;;;;15.46;71.63;99786.10;218683;1256;139566;-73
2023/07/13 23:30:50;;;;;;;4.20;3.90;;;;;;;15.37;72.19;99791.83;218251;1257;140145;-68
2023/07/13 23:36:00;;;;;;;7.40;4.80;;;;;;;15.27;72.41;99793.46;218704;1257;139944;-71